Time;durP1;ratioP1;P1;durP2;ratioP2;P2;SDS_P1;SDS_P2;PMS_P1;PMS_P2;Temp;Humidity;BMP_temperature;BMP_pressure;BME280_temperature;BME280_humidity;BME280_pressure;Samples;Min_cycle;Max_cycle;Signal;HPM_P1;HPM_P2
2021/12/20 00:02:25;;;;;;;6.57;4.37;;;;;;;4.07;96.39;96983.91;5043284;28;20220;-71
2021/12/20 00:04:53;;;;;;;6.50;3.70;;;;;;;4.33;96.50;96982.72;5043189;28;20208;-71
2021/12/20 00:07:20;;;;;;;6.27;2.63;;;;;;;4.01;96.82;96981.81;5044919;28;20208;-71
2021/12/20 00:09:46;;;;;;;6.63;3.27;;;;;;;3.99;96.82;96981.09;5043431;28;20216;-71
2021/12/20 00:12:13;;;;;;;13.80;3.70;;;;;;;3.99;96.90;96978.47;5043601;28;20220;-71
2021/12/20 00:14:39;;;;;;;5.93;3.57;;;;;;;4.14;95.95;96966.00;5042116;28;20220;-71
2021/12/20 00:17:06;;;;;;;15.27;4.70;;;;;;;4.24;95.81;96975.63;5043581;28;20224;-71
2021/12/20 00:19:32;;;;;;;13.60;5.67;;;;;;;4.13;95.86;96965.19;5043595;28;20255;-71
2021/12/20 00:22:00;;;;;;;7.13;4.60;;;;;;;4.10;96.80;96969.81;5042612;28;20621;-71
2021/12/20 00:24:27;;;;;;;4.80;3.03;;;;;;;3.89;97.11;96956.66;5044475;28;20211;-71
2021/12/20 00:26:53;;;;;;;9.73;3.60;;;;;;;3.91;97.38;96960.00;5043423;28;20201;-71
2021/12/20 00:29:20;;;;;;;9.37;4.40;;;;;;;3.89;96.97;96961.88;5043587;28;20215;-71
2021/12/20 00:31:46;;;;;;;10.03;3.27;;;;;;;3.91;97.31;96962.59;5044350;28;20578;-71
2021/12/20 00:34:13;;;;;;;15.67;3.97;;;;;;;3.79;97.36;96960.97;5044133;28;20220;-71
2021/12/20 00:36:39;;;;;;;9.20;4.33;;;;;;;3.69;98.03;96957.41;5043101;28;20205;-71
2021/12/20 00:41:51;;;;;;;10.47;2.90;;;;;;;3.76;98.00;96948.16;5042728;28;20341;-71
2021/12/20 00:44:17;;;;;;;6.60;2.67;;;;;;;3.68;98.57;96953.13;5042304;28;20208;-71
2021/12/20 00:46:44;;;;;;;7.90;3.43;;;;;;;3.54;99.33;96949.09;5042944;28;21009;-71
2021/12/20 00:49:11;;;;;;;7.97;4.13;;;;;;;3.93;97.64;96952.88;5044392;28;20192;-71
2021/12/20 00:51:37;;;;;;;6.93;5.53;;;;;;;4.03;96.61;96945.19;5043323;28;20208;-71
2021/12/20 00:54:04;;;;;;;7.53;4.70;;;;;;;3.75;97.44;96950.88;5042454;28;20228;-71
2021/12/20 00:56:32;;;;;;;9.97;4.80;;;;;;;4.23;97.04;96942.66;5043093;28;21016;-71
2021/12/20 00:58:58;;;;;;;8.93;3.80;;;;;;;3.76;98.36;96958.56;5042644;28;20228;-71
2021/12/20 01:01:25;;;;;;;12.07;3.77;;;;;;;4.14;96.65;96945.16;5042550;28;20205;-71
2021/12/20 01:03:51;;;;;;;10.83;3.83;;;;;;;4.11;96.38;96934.97;5042948;28;20220;-71
2021/12/20 01:06:17;;;;;;;12.60;4.47;;;;;;;4.05;96.03;96940.66;5043479;28;20208;-71
2021/12/20 01:08:45;;;;;;;10.30;4.13;;;;;;;3.86;96.74;96937.84;5042593;28;20684;-71
2021/12/20 01:11:14;;;;;;;6.63;3.23;;;;;;;3.82;96.98;96934.66;5042978;28;20976;-71
2021/12/20 01:13:41;;;;;;;5.50;3.37;;;;;;;4.24;96.61;96937.31;5040630;28;20316;-71
2021/12/20 01:16:12;;;;;;;2.97;2.67;;;;;;;4.25;95.94;96938.13;5043699;28;20655;-71
2021/12/20 01:18:39;;;;;;;6.00;4.10;;;;;;;4.01;96.31;96940.09;5042952;28;20228;-71
2021/12/20 01:21:05;;;;;;;5.73;3.53;;;;;;;4.10;96.03;96947.19;5043250;28;20212;-71
2021/12/20 01:23:32;;;;;;;13.83;3.63;;;;;;;4.01;95.76;96945.31;5042494;28;20231;-71
2021/12/20 01:25:58;;;;;;;18.20;5.73;;;;;;;3.93;96.49;96946.84;5043103;28;20205;-71
2021/12/20 01:28:25;;;;;;;9.23;5.27;;;;;;;3.78;97.25;96946.25;5042917;28;20208;-72
2021/12/20 01:30:53;;;;;;;7.57;4.30;;;;;;;4.20;96.84;96945.53;5045187;28;20576;-71
2021/12/20 01:33:19;;;;;;;12.33;3.43;;;;;;;3.67;97.46;96955.88;5042666;28;20235;-71
2021/12/20 01:35:46;;;;;;;6.23;3.23;;;;;;;3.95;96.65;96944.97;5042046;28;20965;-71
2021/12/20 01:38:13;;;;;;;13.50;4.17;;;;;;;3.95;96.37;96952.78;5043038;28;20226;-71
2021/12/20 01:40:39;;;;;;;8.83;3.37;;;;;;;3.60;97.61;96948.63;5043849;28;20215;-71
2021/12/20 01:43:09;;;;;;;9.83;4.30;;;;;;;4.00;97.10;96948.84;5041971;28;20221;-71
2021/12/20 01:45:35;;;;;;;12.57;5.07;;;;;;;4.07;96.03;96949.19;5042834;28;20205;-71
2021/12/20 01:48:07;;;;;;;9.27;2.93;;;;;;;4.06;96.98;96947.53;5042653;28;20704;-71
2021/12/20 01:51:15;;;;;;;12.30;5.73;;;;;;;4.05;96.84;96940.66;5044042;28;20860;-71
2021/12/20 01:53:41;;;;;;;12.10;4.30;;;;;;;4.20;96.86;96948.13;5045740;28;20308;-72
2021/12/20 01:56:10;;;;;;;5.67;3.20;;;;;;;4.27;96.13;96934.44;5046679;28;20212;-72
2021/12/20 01:58:37;;;;;;;9.10;4.20;;;;;;;3.80;96.94;96939.13;5045716;28;20319;-72
2021/12/20 02:01:20;;;;;;;18.57;4.07;;;;;;;4.25;96.17;96944.19;5046088;28;20208;-72
2021/12/20 02:03:55;;;;;;;9.97;3.80;;;;;;;4.10;96.41;96930.69;5045349;28;20227;-72
2021/12/20 02:06:27;;;;;;;12.10;4.33;;;;;;;3.91;96.97;96920.09;5046317;28;20239;-71
2021/12/20 02:08:54;;;;;;;7.13;4.57;;;;;;;4.10;96.92;96923.72;5046282;28;20284;-71
2021/12/20 02:11:21;;;;;;;5.53;2.57;;;;;;;3.95;96.39;96924.91;5046872;28;20217;-71
2021/12/20 02:13:48;;;;;;;10.00;3.90;;;;;;;3.75;96.72;96925.63;5043035;28;20245;-71
2021/12/20 02:16:15;;;;;;;12.03;5.53;;;;;;;3.93;96.46;96912.94;5046495;28;20204;-71
2021/12/20 02:18:41;;;;;;;10.03;4.33;;;;;;;3.93;96.44;96905.13;5046445;28;20232;-71
2021/12/20 02:21:09;;;;;;;11.60;5.23;;;;;;;3.72;97.35;96902.41;5046442;28;20212;-71
2021/12/20 02:23:36;;;;;;;3.97;2.90;;;;;;;3.56;98.02;96911.53;5045903;28;20251;-71
2021/12/20 02:26:02;;;;;;;11.43;5.03;;;;;;;3.90;97.31;96916.63;5046807;28;20216;-71
2021/12/20 02:28:36;;;;;;;8.13;4.40;;;;;;;4.07;96.28;96917.91;5046321;28;20696;-71
2021/12/20 02:39:16;;;;;;;6.80;4.03;;;;;;;4.11;96.77;96917.56;5047177;28;20238;-71
2021/12/20 02:41:43;;;;;;;15.57;4.17;;;;;;;3.67;98.16;96909.78;5046461;28;20692;-71
2021/12/20 02:44:17;;;;;;;10.33;4.17;;;;;;;3.78;97.55;96912.38;5046411;28;20228;-71
2021/12/20 02:46:51;;;;;;;10.30;4.00;;;;;;;3.77;98.74;96905.50;5046709;28;20203;-71
2021/12/20 02:49:19;;;;;;;5.63;3.63;;;;;;;4.04;97.81;96908.53;5046973;28;20650;-71
2021/12/20 02:51:50;;;;;;;7.20;3.53;;;;;;;4.22;97.02;96911.47;5047915;28;20212;-71
2021/12/20 02:54:18;;;;;;;21.97;5.77;;;;;;;4.38;96.23;96908.34;5045989;28;20216;-71
2021/12/20 02:56:45;;;;;;;19.80;7.07;;;;;;;4.27;95.68;96912.75;5045935;28;20204;-71
2021/12/20 02:59:13;;;;;;;7.80;3.87;;;;;;;4.49;94.78;96899.66;5046197;28;20224;-71
2021/12/20 03:01:42;;;;;;;16.03;5.33;;;;;;;4.38;95.52;96899.69;5045841;28;20214;-72
2021/12/20 03:04:10;;;;;;;7.90;4.43;;;;;;;4.29;95.18;96897.84;5045788;28;20228;-72
2021/12/20 03:06:39;;;;;;;10.23;4.70;;;;;;;4.57;94.73;96902.44;5047100;28;20213;-72
2021/12/20 03:09:10;;;;;;;9.77;4.93;;;;;;;4.14;96.63;96901.66;5044934;28;20233;-72
2021/12/20 03:11:37;;;;;;;5.80;3.87;;;;;;;4.18;95.50;96905.66;5046377;28;20210;-72
2021/12/20 03:14:13;;;;;;;7.67;3.37;;;;;;;4.21;96.08;96902.00;5045256;28;21027;-72
2021/12/20 03:16:39;;;;;;;13.80;4.93;;;;;;;4.04;95.99;96905.13;5046152;28;20676;-71
2021/12/20 03:19:06;;;;;;;11.20;4.23;;;;;;;4.12;95.67;96900.94;5046912;28;21051;-71
2021/12/20 03:21:32;;;;;;;7.57;3.33;;;;;;;4.15;95.21;96912.91;5046230;28;20204;-71
2021/12/20 03:23:59;;;;;;;15.33;4.23;;;;;;;4.37;94.63;96911.09;5045954;28;20235;-71
2021/12/20 03:26:27;;;;;;;7.20;3.80;;;;;;;4.52;94.74;96907.22;5047011;28;20209;-71
2021/12/20 03:28:54;;;;;;;8.90;3.47;;;;;;;4.18;94.88;96904.84;5046969;28;20204;-71
2021/12/20 03:31:20;;;;;;;10.40;3.93;;;;;;;4.33;94.75;96904.47;5045496;28;20228;-71
2021/12/20 03:33:47;;;;;;;8.57;4.57;;;;;;;4.07;95.36;96900.47;5049026;28;20229;-72
2021/12/20 03:36:14;;;;;;;10.53;5.47;;;;;;;4.21;95.06;96902.81;5049114;28;20236;-71
2021/12/20 03:38:40;;;;;;;5.83;4.63;;;;;;;4.07;95.35;96902.25;5046180;28;20232;-71
2021/12/20 03:41:07;;;;;;;18.83;6.03;;;;;;;4.19;94.98;96907.34;5046631;28;20218;-71
2021/12/20 03:43:35;;;;;;;8.97;4.40;;;;;;;4.53;94.37;96898.44;5046563;28;20228;-71
2021/12/20 03:46:04;;;;;;;6.43;3.67;;;;;;;4.05;95.70;96899.78;5046961;28;20205;-71
2021/12/20 03:48:30;;;;;;;8.33;4.07;;;;;;;3.90;96.43;96887.94;5046282;28;20215;-71
2021/12/20 03:51:00;;;;;;;8.00;2.83;;;;;;;4.23;96.04;96900.91;5047455;28;20209;-71
2021/12/20 03:53:27;;;;;;;3.80;2.60;;;;;;;4.15;95.37;96892.88;5046512;28;20401;-71
2021/12/20 03:55:53;;;;;;;15.90;6.67;;;;;;;3.99;96.25;96895.03;5047627;28;20668;-71
2021/12/20 03:58:20;;;;;;;11.63;5.53;;;;;;;4.17;95.15;96898.78;5047080;28;20231;-71
2021/12/20 04:00:49;;;;;;;5.90;3.07;;;;;;;4.65;94.25;96889.63;5047422;28;20571;-71
2021/12/20 04:03:15;;;;;;;12.03;4.40;;;;;;;4.24;94.74;96898.19;5046626;28;20220;-71
2021/12/20 04:05:42;;;;;;;15.70;5.57;;;;;;;4.30;94.97;96894.25;5047069;28;20204;-71
2021/12/20 04:08:09;;;;;;;8.73;3.73;;;;;;;4.20;94.92;96893.34;5047278;28;20218;-71
2021/12/20 04:10:36;;;;;;;7.77;4.47;;;;;;;4.17;94.73;96896.19;5046689;28;20214;-71
2021/12/20 04:13:03;;;;;;;10.20;4.80;;;;;;;4.00;95.53;96894.09;5044566;28;20233;-71
2021/12/20 04:15:29;;;;;;;5.53;3.07;;;;;;;3.88;95.60;96897.69;5045242;28;20223;-71
2021/12/20 04:17:57;;;;;;;12.87;3.67;;;;;;;4.01;96.97;96900.97;5045529;28;20212;-71
2021/12/20 04:20:24;;;;;;;12.23;4.67;;;;;;;4.14;95.60;96899.06;5045748;28;20681;-71
2021/12/20 04:22:50;;;;;;;8.67;4.23;;;;;;;4.11;95.77;96899.31;5045252;28;20229;-71
2021/12/20 04:25:17;;;;;;;5.10;2.67;;;;;;;4.02;95.79;96900.03;5044700;28;20205;-71
2021/12/20 04:27:43;;;;;;;5.50;3.03;;;;;;;4.12;95.42;96902.72;5045155;28;20575;-71
2021/12/20 04:30:11;;;;;;;7.83;4.53;;;;;;;4.31;95.41;96901.13;5046436;28;20325;-71
2021/12/20 04:32:39;;;;;;;6.83;3.00;;;;;;;4.33;95.34;96899.25;5045861;28;20225;-71
2021/12/20 04:35:09;;;;;;;18.30;3.80;;;;;;;4.45;94.99;96908.69;5046839;28;20208;-71
2021/12/20 04:37:36;;;;;;;11.33;3.43;;;;;;;4.15;94.99;96905.94;5045901;28;20211;-72
2021/12/20 04:40:07;;;;;;;7.00;3.23;;;;;;;4.36;94.80;96899.78;5044686;28;20248;-71
2021/12/20 04:42:34;;;;;;;9.00;3.43;;;;;;;4.40;94.47;96900.38;5043483;28;20228;-71
2021/12/20 04:45:01;;;;;;;7.93;4.93;;;;;;;4.24;94.57;96903.41;5044159;28;20693;-71
2021/12/20 04:47:27;;;;;;;8.80;3.73;;;;;;;4.25;94.32;96905.06;5045000;28;20204;-71
2021/12/20 04:49:54;;;;;;;12.10;4.23;;;;;;;4.23;94.46;96898.31;5044387;28;20204;-71
2021/12/20 04:52:23;;;;;;;10.67;4.30;;;;;;;4.51;94.67;96897.75;5043858;28;20943;-71
2021/12/20 04:54:50;;;;;;;3.90;2.97;;;;;;;4.12;95.04;96910.56;5045960;28;20205;-71
2021/12/20 04:57:17;;;;;;;13.60;3.20;;;;;;;3.92;96.21;96904.31;5045931;28;20722;-71
2021/12/20 04:59:44;;;;;;;20.97;6.40;;;;;;;4.13;95.21;96907.81;5046419;28;20231;-72
2021/12/20 05:02:11;;;;;;;7.53;4.40;;;;;;;4.22;95.14;96909.69;5046938;28;20227;-72
2021/12/20 05:04:37;;;;;;;11.90;3.90;;;;;;;4.28;94.96;96917.03;5046132;28;20204;-72
2021/12/20 05:07:04;;;;;;;18.43;3.67;;;;;;;4.41;94.58;96913.31;5045812;28;20641;-72
2021/12/20 05:09:37;;;;;;;3.37;2.97;;;;;;;4.65;94.29;96911.31;5046564;28;20266;-72
2021/12/20 05:12:11;;;;;;;8.53;3.27;;;;;;;4.55;94.23;96914.81;5047170;28;20218;-72
2021/12/20 05:14:39;;;;;;;7.63;4.37;;;;;;;4.49;93.71;96923.97;5045668;28;20219;-72
2021/12/20 05:17:06;;;;;;;6.00;3.07;;;;;;;4.48;93.73;96924.06;5046989;28;20209;-72
2021/12/20 05:19:33;;;;;;;6.47;3.20;;;;;;;4.50;93.69;96932.63;5045535;28;20247;-72
2021/12/20 05:21:59;;;;;;;17.10;4.87;;;;;;;4.40;93.80;96926.47;5045390;28;20211;-72
2021/12/20 05:24:26;;;;;;;47.20;4.73;;;;;;;3.84;95.68;96921.50;5045347;28;20208;-72
2021/12/20 05:26:54;;;;;;;8.03;3.83;;;;;;;4.37;95.57;96926.75;5049560;28;20211;-72
2021/12/20 05:29:22;;;;;;;6.53;4.20;;;;;;;4.25;95.44;96933.75;5048909;28;20208;-72
2021/12/20 05:31:49;;;;;;;8.80;5.23;;;;;;;4.33;94.84;96936.56;5049578;28;20201;-72
2021/12/20 05:34:15;;;;;;;8.43;3.13;;;;;;;4.39;94.48;96922.22;5048959;28;20209;-72
2021/12/20 05:36:42;;;;;;;18.00;5.83;;;;;;;4.63;93.65;96923.66;5049191;28;20215;-72
2021/12/20 05:39:09;;;;;;;14.03;4.97;;;;;;;4.43;93.73;96923.63;5050097;28;20236;-72
2021/12/20 05:41:35;;;;;;;4.93;3.23;;;;;;;4.57;93.15;96933.78;5050023;28;20204;-72
2021/12/20 05:44:04;;;;;;;7.57;3.97;;;;;;;4.85;93.39;96940.06;5050255;28;20240;-71
2021/12/20 05:46:31;;;;;;;10.17;5.30;;;;;;;4.62;93.29;96937.69;5050857;28;20227;-72
2021/12/20 05:48:57;;;;;;;6.70;4.40;;;;;;;4.70;92.77;96940.50;5051111;28;20203;-72
2021/12/20 05:51:24;;;;;;;14.10;7.33;;;;;;;4.51;93.15;96940.31;5049763;28;20204;-72
2021/12/20 05:53:50;;;;;;;3.27;2.47;;;;;;;4.51;93.14;96945.53;5048583;28;20244;-72
2021/12/20 05:56:17;;;;;;;6.73;4.40;;;;;;;4.62;93.09;96940.31;5051407;28;20212;-72
2021/12/20 05:58:44;;;;;;;5.37;3.07;;;;;;;4.30;94.12;96941.19;5049763;28;20208;-72
2021/12/20 06:01:11;;;;;;;11.73;4.40;;;;;;;4.74;93.13;96936.69;5049455;28;20205;-72
2021/12/20 06:03:38;;;;;;;20.70;4.57;;;;;;;4.53;93.12;96935.81;5040167;28;20225;-72
2021/12/20 06:06:05;;;;;;;10.67;4.17;;;;;;;4.47;93.81;96940.72;5039286;28;20500;-72
2021/12/20 06:08:31;;;;;;;12.43;4.80;;;;;;;4.34;94.22;96942.63;5040494;28;20215;-72
2021/12/20 06:10:58;;;;;;;10.90;3.97;;;;;;;4.51;93.83;96944.72;5039682;28;20215;-72
2021/12/20 06:13:24;;;;;;;9.00;3.43;;;;;;;4.58;93.26;96951.09;5038852;28;20223;-72
2021/12/20 06:15:51;;;;;;;7.37;4.93;;;;;;;4.61;92.92;96946.47;5039854;28;20219;-72
2021/12/20 06:18:19;;;;;;;7.27;3.57;;;;;;;4.84;92.66;96943.63;5040365;28;20201;-72
2021/12/20 06:20:45;;;;;;;11.23;5.03;;;;;;;4.64;92.07;96938.38;5038756;28;20232;-72
2021/12/20 06:23:12;;;;;;;13.67;6.53;;;;;;;4.63;92.45;96941.94;5039481;28;20246;-72
2021/12/20 06:25:39;;;;;;;9.93;5.17;;;;;;;4.81;92.37;96958.72;5039870;28;20205;-72
2021/12/20 06:28:06;;;;;;;11.00;3.53;;;;;;;4.72;92.04;96948.19;5039705;28;20580;-72
2021/12/20 06:30:32;;;;;;;19.23;5.07;;;;;;;4.59;92.83;96942.31;5038808;28;20205;-72
2021/12/20 06:32:59;;;;;;;19.53;6.63;;;;;;;4.62;92.71;96944.66;5038906;28;20236;-72
2021/12/20 06:35:27;;;;;;;14.17;5.50;;;;;;;4.78;93.02;96945.91;5036279;28;20222;-72
2021/12/20 06:38:00;;;;;;;20.17;5.37;;;;;;;4.71;92.68;96949.16;5039400;28;20303;-73
2021/12/20 06:40:26;;;;;;;8.37;4.17;;;;;;;4.59;93.16;96955.38;5038810;28;20767;-72
2021/12/20 06:42:53;;;;;;;13.47;3.73;;;;;;;4.68;92.88;96957.25;5038652;28;20232;-72
2021/12/20 06:45:20;;;;;;;10.23;4.27;;;;;;;4.75;92.52;96953.16;5038953;28;20209;-72
2021/12/20 06:47:46;;;;;;;8.03;2.57;;;;;;;4.73;92.44;96955.09;5038899;28;20201;-72
2021/12/20 06:50:13;;;;;;;4.77;3.07;;;;;;;4.69;92.77;96956.28;5039056;28;20205;-72
2021/12/20 06:52:41;;;;;;;12.37;4.73;;;;;;;4.88;92.92;96958.09;5038100;28;20233;-72
2021/12/20 06:55:09;;;;;;;14.70;6.07;;;;;;;4.84;92.38;96964.53;5038864;28;20713;-72
2021/12/20 06:57:36;;;;;;;16.23;7.57;;;;;;;4.60;93.21;96970.09;5039247;28;20244;-72
2021/12/20 07:00:04;;;;;;;10.63;5.30;;;;;;;4.74;93.70;96972.41;5038834;28;20244;-72
2021/12/20 07:02:31;;;;;;;17.97;5.20;;;;;;;4.52;93.39;96962.00;5037743;28;20251;-72
2021/12/20 07:04:57;;;;;;;10.27;5.63;;;;;;;4.55;93.58;96957.38;5038988;28;20208;-72
2021/12/20 07:07:24;;;;;;;12.53;6.17;;;;;;;4.69;93.31;96966.72;5038467;28;20215;-72
2021/12/20 07:09:52;;;;;;;8.07;3.73;;;;;;;4.81;93.30;96963.13;5038567;28;20201;-73
2021/12/20 07:12:18;;;;;;;25.23;4.50;;;;;;;4.65;93.28;96973.16;5037910;28;21144;-73
2021/12/20 07:14:49;;;;;;;12.83;4.80;;;;;;;4.73;92.61;96975.97;5038923;28;20221;-72
2021/12/20 07:17:15;;;;;;;6.77;3.63;;;;;;;4.82;92.50;96975.22;5038533;28;20355;-71
2021/12/20 07:19:42;;;;;;;11.10;4.77;;;;;;;4.68;93.15;96970.28;5038886;28;20232;-72
2021/12/20 07:22:08;;;;;;;6.30;3.47;;;;;;;4.80;92.73;96971.91;5037198;28;20232;-71
2021/12/20 07:24:35;;;;;;;12.27;4.90;;;;;;;4.89;92.45;96977.22;5038958;28;20216;-71
2021/12/20 07:27:03;;;;;;;20.17;5.90;;;;;;;5.05;92.79;96969.78;5038089;28;20208;-71
2021/12/20 07:29:30;;;;;;;12.57;5.73;;;;;;;4.89;92.50;96972.81;5038778;28;20688;-71
2021/12/20 07:31:56;;;;;;;15.33;5.67;;;;;;;4.72;92.94;96974.31;5037667;28;20205;-71
2021/12/20 07:34:23;;;;;;;9.10;5.03;;;;;;;4.42;94.31;96966.34;5036551;28;20215;-71
2021/12/20 07:36:50;;;;;;;18.43;6.73;;;;;;;4.70;92.93;96966.59;5038069;28;20212;-72
2021/12/20 07:39:17;;;;;;;15.97;6.90;;;;;;;4.80;92.86;96977.13;5038018;28;20205;-71
2021/12/20 07:41:44;;;;;;;24.67;8.17;;;;;;;4.80;92.91;96977.13;5038207;28;20212;-71
2021/12/20 07:44:12;;;;;;;14.80;7.20;;;;;;;4.99;93.13;96981.56;5037289;28;20224;-71
2021/12/20 07:46:39;;;;;;;12.43;6.07;;;;;;;4.93;92.72;96974.22;5038027;28;20248;-71
2021/12/20 07:49:05;;;;;;;8.33;4.10;;;;;;;4.85;91.92;96987.06;5038171;28;20200;-71
2021/12/20 07:51:32;;;;;;;7.07;4.00;;;;;;;5.00;91.98;96985.00;5037722;28;20695;-71
2021/12/20 07:53:58;;;;;;;10.90;5.07;;;;;;;4.96;92.13;96987.03;5037386;28;20235;-71
2021/12/20 07:56:25;;;;;;;20.67;4.80;;;;;;;4.57;93.20;96983.34;5037907;28;20578;-71
2021/12/20 07:58:51;;;;;;;9.53;4.50;;;;;;;4.68;93.48;96992.00;5038145;28;20208;-71
2021/12/20 08:01:19;;;;;;;11.80;4.50;;;;;;;5.03;93.63;96990.81;5037801;28;20225;-71
2021/12/20 08:03:46;;;;;;;10.50;4.17;;;;;;;5.03;92.67;96998.63;5036815;28;20609;-71
2021/12/20 08:06:13;;;;;;;6.73;3.30;;;;;;;4.94;92.96;96996.78;5037372;28;20300;-71
2021/12/20 08:08:40;;;;;;;7.23;2.80;;;;;;;5.03;92.01;96996.03;5037810;28;20201;-71
2021/12/20 08:11:07;;;;;;;14.23;4.77;;;;;;;5.03;91.94;96996.03;5037147;28;20247;-71
2021/12/20 08:13:33;;;;;;;8.37;4.77;;;;;;;4.95;92.20;97000.19;5036122;28;20228;-71
2021/12/20 08:16:00;;;;;;;15.13;5.83;;;;;;;5.03;92.29;96989.97;5038228;28;20216;-71
2021/12/20 08:18:28;;;;;;;11.23;3.93;;;;;;;5.04;92.39;96997.69;5037686;28;20201;-71
2021/12/20 08:20:55;;;;;;;7.00;4.13;;;;;;;5.06;91.95;97000.16;5036754;28;20225;-71
2021/12/20 08:23:22;;;;;;;6.13;4.63;;;;;;;5.00;92.39;96995.44;5036116;28;20307;-71
2021/12/20 08:25:48;;;;;;;11.43;4.63;;;;;;;5.05;92.19;97003.72;5038136;28;20212;-71
2021/12/20 08:28:15;;;;;;;9.43;4.43;;;;;;;4.78;92.51;96999.94;5036721;28;20575;-71
2021/12/20 08:30:41;;;;;;;7.80;3.50;;;;;;;4.63;92.78;96995.94;5036715;28;20205;-71
2021/12/20 08:33:08;;;;;;;9.13;5.30;;;;;;;4.84;92.09;97005.47;5037841;28;20224;-71
2021/12/20 08:35:36;;;;;;;8.83;3.97;;;;;;;5.17;91.90;97003.56;5036316;28;20197;-72
2021/12/20 08:38:02;;;;;;;4.30;2.30;;;;;;;5.71;99.97;96994.56;5037401;28;20577;-72
2021/12/20 08:40:29;;;;;;;15.00;5.80;;;;;;;6.08;89.92;96993.97;5037851;28;20228;-71
2021/12/20 08:42:56;;;;;;;8.67;4.23;;;;;;;5.66;88.66;96996.72;5037225;28;20238;-71
2021/12/20 08:45:23;;;;;;;8.43;4.07;;;;;;;5.43;89.18;96997.84;5035949;28;20649;-72
2021/12/20 08:47:50;;;;;;;13.17;4.47;;;;;;;5.16;89.92;97001.06;5036029;28;20669;-72
2021/12/20 08:50:19;;;;;;;17.53;4.83;;;;;;;5.54;90.58;96996.94;5035827;28;20299;-72
2021/12/20 08:52:50;;;;;;;11.20;3.63;;;;;;;5.50;90.85;97001.59;5032995;28;20307;-72
2021/12/20 08:55:17;;;;;;;9.37;4.50;;;;;;;5.23;90.90;97008.28;5036641;28;20209;-72
2021/12/20 08:57:43;;;;;;;12.60;4.73;;;;;;;5.48;90.47;97003.50;5036624;28;20205;-72
2021/12/20 09:00:14;;;;;;;4.57;3.70;;;;;;;5.85;89.81;97002.09;5035709;28;20229;-72
2021/12/20 09:02:41;;;;;;;13.30;5.07;;;;;;;5.29;90.22;97005.16;5039505;28;20225;-72
2021/12/20 09:05:08;;;;;;;8.60;4.60;;;;;;;5.57;90.09;97009.75;5040003;28;20205;-72
2021/12/20 09:07:36;;;;;;;16.93;4.87;;;;;;;5.44;90.09;97009.94;5040506;28;20212;-72
2021/12/20 09:10:04;;;;;;;8.40;4.57;;;;;;;5.67;90.52;97008.84;5040139;28;20201;-72
2021/12/20 09:12:31;;;;;;;12.63;4.67;;;;;;;5.38;90.37;97027.09;5040437;28;20602;-72
2021/12/20 09:14:58;;;;;;;8.67;5.20;;;;;;;5.56;90.06;97016.78;5039796;28;20213;-72
2021/12/20 09:17:24;;;;;;;8.43;5.17;;;;;;;5.36;90.29;97024.63;5040717;28;20209;-71
2021/12/20 09:19:51;;;;;;;9.97;4.90;;;;;;;4.93;91.30;97025.63;5040169;28;20205;-70
2021/12/20 09:22:19;;;;;;;9.37;3.90;;;;;;;5.25;91.48;97023.84;5040013;28;20233;-70
2021/12/20 09:24:45;;;;;;;9.73;4.50;;;;;;;5.09;90.56;97031.25;5039895;28;20227;-70
2021/12/20 09:27:13;;;;;;;7.17;3.80;;;;;;;5.63;90.77;97027.56;5041116;28;20205;-70
2021/12/20 09:29:40;;;;;;;6.40;3.20;;;;;;;4.79;92.94;97025.91;5040310;28;20208;-72
2021/12/20 09:32:08;;;;;;;13.60;4.20;;;;;;;5.44;91.11;97027.41;5038929;28;20205;-70
2021/12/20 09:34:34;;;;;;;9.03;4.43;;;;;;;5.21;90.73;97022.44;5036459;28;20213;-70
2021/12/20 09:37:04;;;;;;;9.80;3.73;;;;;;;5.03;91.04;97027.38;5039722;28;20224;-70
2021/12/20 09:39:32;;;;;;;7.67;3.87;;;;;;;5.04;92.22;97028.19;5040019;28;20284;-72
2021/12/20 09:42:03;;;;;;;11.63;4.93;;;;;;;5.28;90.87;97031.41;5039078;28;20223;-70
2021/12/20 09:44:31;;;;;;;4.97;2.77;;;;;;;5.64;90.65;97034.44;5040208;28;20243;-72
2021/12/20 09:47:00;;;;;;;4.00;3.30;;;;;;;5.70;89.75;97028.69;5039441;28;20245;-71
2021/12/20 09:49:28;;;;;;;16.03;5.57;;;;;;;5.49;90.08;97023.47;5039909;28;20208;-71
2021/12/20 09:51:57;;;;;;;7.93;4.90;;;;;;;5.64;90.04;97022.19;5039662;28;20214;-71
2021/12/20 09:54:24;;;;;;;4.10;3.47;;;;;;;5.69;90.05;97027.03;5038633;28;20209;-71
2021/12/20 09:56:53;;;;;;;8.47;4.13;;;;;;;5.90;89.89;97027.88;5039363;28;20673;-71
2021/12/20 09:59:22;;;;;;;12.43;4.67;;;;;;;5.79;90.38;97023.56;5039396;28;20201;-71
2021/12/20 10:01:51;;;;;;;10.63;3.63;;;;;;;6.11;89.51;97022.47;5039189;28;20228;-71
2021/12/20 10:04:18;;;;;;;9.77;4.27;;;;;;;6.04;89.55;97023.94;5038091;28;20201;-71
2021/12/20 10:06:45;;;;;;;5.90;4.30;;;;;;;6.03;88.95;97018.03;5039219;28;20696;-71
2021/12/20 10:09:14;;;;;;;9.70;4.57;;;;;;;5.86;88.84;97005.56;5039448;28;20208;-71
2021/12/20 10:11:43;;;;;;;9.07;5.60;;;;;;;5.65;89.54;97009.94;5038518;28;20201;-71
2021/12/20 10:14:11;;;;;;;6.43;3.63;;;;;;;5.92;88.92;97012.88;5038138;28;20237;-71
2021/12/20 10:16:40;;;;;;;14.30;3.07;;;;;;;6.15;88.27;97015.22;5037905;28;20595;-71
2021/12/20 10:19:24;;;;;;;7.87;4.23;;;;;;;6.23;87.88;97010.94;5039250;28;20205;-71
2021/12/20 10:21:51;;;;;;;5.67;3.77;;;;;;;5.70;87.95;97015.59;5038772;28;20229;-72
2021/12/20 10:24:30;;;;;;;12.53;5.33;;;;;;;6.17;88.61;97008.03;5038006;28;20209;-71
2021/12/20 10:26:56;;;;;;;14.13;4.20;;;;;;;6.00;88.22;97011.28;5042286;28;20223;-71
2021/12/20 10:29:23;;;;;;;10.40;4.80;;;;;;;6.13;87.99;97010.06;5042809;28;20209;-73
2021/12/20 10:31:51;;;;;;;10.03;4.23;;;;;;;6.27;88.27;97009.72;5042850;28;20227;-72
2021/12/20 10:34:30;;;;;;;6.03;4.30;;;;;;;6.26;88.35;97008.09;5040982;28;20202;-71
2021/12/20 10:36:59;;;;;;;12.10;4.57;;;;;;;5.89;90.74;97013.97;5041247;28;20212;-72
2021/12/20 10:39:34;;;;;;;10.53;3.70;;;;;;;6.39;89.15;97003.44;5042494;28;20205;-71
2021/12/20 10:42:17;;;;;;;15.60;5.13;;;;;;;6.48;89.39;96996.56;5040869;28;20235;-70
2021/12/20 10:44:44;;;;;;;10.53;4.07;;;;;;;6.05;89.38;97001.25;5041834;28;20288;-70
2021/12/20 10:47:26;;;;;;;18.57;6.33;;;;;;;6.24;89.44;97001.31;5041887;28;20224;-70
2021/12/20 10:49:54;;;;;;;5.13;2.50;;;;;;;6.37;89.76;96999.31;5041736;28;20209;-70
2021/12/20 10:52:31;;;;;;;12.83;4.57;;;;;;;6.57;88.67;97001.00;5040448;28;20857;-70
2021/12/20 10:54:58;;;;;;;20.50;3.73;;;;;;;6.29;89.39;96994.72;5042622;28;20220;-71
2021/12/20 10:57:28;;;;;;;10.67;5.13;;;;;;;6.65;88.83;96994.13;5041077;28;20213;-71
2021/12/20 11:00:13;;;;;;;12.23;4.57;;;;;;;6.93;87.76;96995.97;5040986;28;20213;-71
2021/12/20 11:03:19;;;;;;;11.77;4.57;;;;;;;6.73;89.28;96994.28;5038708;28;20225;-71
2021/12/20 11:06:11;;;;;;;15.23;4.43;;;;;;;6.80;87.75;96987.56;5037951;28;21061;-72
2021/12/20 11:11:20;;;;;;;8.20;3.67;;;;;;;6.38;89.60;96987.88;5038480;28;20208;-73
2021/12/20 11:13:47;;;;;;;11.33;3.20;;;;;;;6.52;89.59;96996.19;5036992;28;20229;-72
2021/12/20 11:16:27;;;;;;;6.60;3.67;;;;;;;7.05;88.99;96981.75;5037839;28;20208;-71
2021/12/20 11:19:11;;;;;;;11.87;5.00;;;;;;;6.50;89.97;96979.75;5038170;28;20561;-72
2021/12/20 11:21:47;;;;;;;4.67;4.03;;;;;;;6.45;89.81;96976.72;5038446;28;20231;-71
2021/12/20 11:24:15;;;;;;;9.53;3.30;;;;;;;5.85;93.22;96985.59;5034875;28;20231;-71
2021/12/20 11:26:42;;;;;;;7.73;3.70;;;;;;;5.99;93.56;96987.88;5037924;28;20201;-71
2021/12/20 11:29:09;;;;;;;3.77;2.00;;;;;;;6.66;96.10;96983.53;5038118;28;20201;-72
2021/12/20 11:31:37;;;;;;;8.70;3.70;;;;;;;8.34;95.70;96976.53;5037650;28;20220;-71
2021/12/20 11:34:05;;;;;;;6.60;3.17;;;;;;;8.93;81.45;96969.81;5036757;28;20225;-71
2021/12/20 11:36:32;;;;;;;5.27;2.47;;;;;;;7.45;84.41;96973.59;5035495;28;20208;-71
2021/12/20 11:39:01;;;;;;;5.03;3.00;;;;;;;6.97;86.78;96984.25;5036961;28;20212;-71
2021/12/20 11:41:29;;;;;;;7.73;3.70;;;;;;;6.89;87.43;96976.25;5036916;28;20225;-71
2021/12/20 11:43:57;;;;;;;10.13;4.43;;;;;;;6.49;88.74;96983.38;5036598;28;20225;-71
2021/12/20 11:46:29;;;;;;;4.13;3.30;;;;;;;6.14;91.74;96985.56;5036839;28;20209;-71
2021/12/20 11:48:57;;;;;;;12.37;4.60;;;;;;;6.24;90.79;96977.78;5034988;28;20201;-71
2021/12/20 11:51:24;;;;;;;13.07;3.33;;;;;;;6.20;91.25;96979.00;5036849;28;20201;-71
2021/12/20 11:53:51;;;;;;;3.70;1.97;;;;;;;6.10;91.03;96976.34;5035467;28;21158;-72
2021/12/20 11:56:35;;;;;;;11.50;4.90;;;;;;;6.52;92.30;96977.84;5033633;28;20212;-71
2021/12/20 11:59:02;;;;;;;7.87;3.87;;;;;;;6.45;88.65;96973.28;5034911;28;20200;-71